Sheldon, IA

4:51 AM CDT on March 26, 2017 (GMT -0500)
Sheldon Municipal

Weather History for KSHL - February, 2013

Change the Weather History Date:

Sunday, February 17, 2013

  Actual Average Record
Temperature  
Mean Temperature 34 °F -  
Max Temperature 48 °F 31 °F 66 °F (1981)
Min Temperature 21 °F 11 °F -25 °F (1958)
Degree Days  
Heating Degree Days 30    
Moisture  
Dew Point 27 °F    
Average Humidity 78    
Maximum Humidity 100    
Minimum Humidity 50    
Precipitation  
Precipitation 0.00 in - - ()
Sea Level Pressure  
Sea Level Pressure 29.75 in    
Wind  
Wind Speed 12 mph (SSE)    
Max Wind Speed 28 mph    
Max Gust Speed 32 mph    
Visibility 10 miles    
Events      
Averages and records for this station are not official NWS values.
T = Trace of Precipitation, MM = Missing Value Source: NWS Daily Summary

Daily Weather History Graph

Daily Weather History Graph

Search for Another Location

Airport or City:

Trip Planner

Search our weather history database for the weather conditions in past years. The results will help you decide how hot, cold, wet, or windy it might be!

Date:

Astronomy

Feb. 17, 2013 Rise Set
Actual Time 7:17 AM CST 5:57 PM CST
Civil Twilight 6:48 AM CST 6:26 PM CST
Nautical Twilight 6:15 AM CST 6:59 PM CST
Astronomical Twilight 5:42 AM CST 7:32 PM CST
Moon 10:58 AM CST (2/17) 1:06 AM CST (2/17)
Length of Visible Light 11h 37m
Length of Day
10h 39m
Waxing Crescent, 49% of the Moon is Illuminated
Feb 17
Waxing Crescent
Feb 17
First Quarter
Feb 25
Full
Mar 4
Last Quarter
Mar 11
New

Hourly Weather History & Observations

Time (CST) Temp. Windchill Dew Point Humidity Pressure Visibility Wind Dir Wind Speed Gust Speed Precip Events Conditions
12:15 AM 23.0 °F 15.8 °F 23.0 °F 100% 29.99 in 10.0 mi SSE 5.8 mph - N/A   Overcast
12:35 AM 23.0 °F 18.4 °F 23.0 °F 100% 29.99 in 10.0 mi ESE 3.5 mph - N/A   Overcast
12:55 AM 23.0 °F 15.8 °F 23.0 °F 100% 29.99 in 10.0 mi ESE 5.8 mph - N/A   Overcast
1:15 AM 24.8 °F 17.9 °F 23.0 °F 93% 29.99 in 10.0 mi SE 5.8 mph - N/A   Overcast
1:35 AM 24.8 °F 16.9 °F 24.8 °F 100% 29.98 in 10.0 mi SSE 6.9 mph - N/A   Overcast
1:55 AM 24.8 °F 15.3 °F 24.8 °F 100% 29.98 in 10.0 mi SSE 9.2 mph - N/A   Overcast
2:15 AM 24.8 °F 16.9 °F 24.8 °F 100% 29.98 in 10.0 mi South 6.9 mph - N/A   Overcast
2:35 AM 24.8 °F 16.1 °F 24.8 °F 100% 29.98 in 10.0 mi SSE 8.1 mph - N/A   Overcast
2:55 AM 24.8 °F 16.9 °F 24.8 °F 100% 29.97 in 10.0 mi SE 6.9 mph - N/A   Overcast
3:15 AM 23.0 °F 14.7 °F 23.0 °F 100% 29.97 in 10.0 mi SE 6.9 mph - N/A   Mostly Cloudy
3:35 AM 23.0 °F 14.7 °F 23.0 °F 100% 29.96 in 10.0 mi SE 6.9 mph - N/A   Partly Cloudy
3:55 AM 23.0 °F 14.7 °F 23.0 °F 100% 29.95 in 10.0 mi SE 6.9 mph - N/A   Clear
4:15 AM 23.0 °F 14.7 °F 21.2 °F 93% 29.95 in 10.0 mi SE 6.9 mph - N/A   Clear
4:35 AM 21.2 °F 12.6 °F 21.2 °F 100% 29.94 in - SE 6.9 mph - N/A   Unknown
4:55 AM 23.0 °F 11.7 °F 21.2 °F 93% 29.93 in 10.0 mi SSE 11.5 mph - N/A   Clear
5:15 AM 23.0 °F 12.4 °F 21.2 °F 93% 29.92 in 10.0 mi SSE 10.4 mph - N/A   Clear
5:35 AM 23.0 °F 12.4 °F 21.2 °F 93% 29.92 in 10.0 mi SSE 10.4 mph - N/A   Clear
5:55 AM 23.0 °F 12.4 °F 21.2 °F 93% 29.91 in 10.0 mi SE 10.4 mph - N/A   Clear
6:15 AM 23.0 °F 11.7 °F 19.4 °F 86% 29.90 in 10.0 mi SSE 11.5 mph - N/A   Clear
6:35 AM 23.0 °F 11.7 °F 19.4 °F 86% 29.90 in 10.0 mi SSE 11.5 mph - N/A   Clear
6:55 AM 21.2 °F 9.5 °F 19.4 °F 93% 29.89 in 10.0 mi SSE 11.5 mph - N/A   Clear
7:15 AM 21.2 °F 8.9 °F 19.4 °F 93% 29.88 in 9.0 mi SSE 12.7 mph - N/A   Clear
7:35 AM 21.2 °F 8.9 °F 19.4 °F 93% 29.89 in 9.0 mi SSE 12.7 mph - N/A   Clear
7:55 AM 23.0 °F 11.7 °F 19.4 °F 86% 29.88 in 9.0 mi SSE 11.5 mph - N/A   Clear
8:15 AM 23.0 °F 11.1 °F 19.4 °F 86% 29.88 in 10.0 mi SSE 12.7 mph - N/A   Clear
8:35 AM 24.8 °F 13.4 °F 21.2 °F 86% 29.87 in 9.0 mi SSE 12.7 mph - N/A   Clear
8:55 AM 24.8 °F 11.9 °F 21.2 °F 86% 29.87 in 9.0 mi SSE 16.1 mph - N/A   Clear
9:15 AM 26.6 °F 14.7 °F 23.0 °F 86% 29.86 in 9.0 mi South 15.0 mph - N/A   Clear
9:35 AM 28.4 °F 17.0 °F 23.0 °F 80% 29.85 in 10.0 mi SSE 15.0 mph - N/A   Clear
9:55 AM 30.2 °F 18.5 °F 24.8 °F 80% 29.85 in 10.0 mi SSE 17.3 mph - N/A   Clear
10:15 AM 30.2 °F 18.5 °F 24.8 °F 80% 29.83 in 10.0 mi SSE 17.3 mph - N/A   Clear
10:35 AM 32.0 °F 20.8 °F 26.6 °F 80% 29.82 in 10.0 mi SSE 17.3 mph - N/A   Clear
10:55 AM 33.8 °F 22.8 °F 26.6 °F 75% 29.81 in 10.0 mi South 18.4 mph - N/A   Clear
11:15 AM 35.6 °F 24.8 °F 26.6 °F 70% 29.80 in 10.0 mi SSE 19.6 mph - N/A   Clear
11:35 AM 37.4 °F 26.9 °F 26.6 °F 65% 29.79 in 10.0 mi SSE 20.7 mph - N/A   Clear
11:55 AM 37.4 °F 26.6 °F 26.6 °F 65% 29.77 in 10.0 mi SSE 21.9 mph - N/A   Clear
12:15 PM 39.2 °F 29.6 °F 28.4 °F 65% 29.75 in 10.0 mi SSE 19.6 mph 28.8 mph N/A   Clear
12:35 PM 41.0 °F 31.1 °F 28.4 °F 61% 29.74 in 10.0 mi SSE 23.0 mph 28.8 mph N/A   Clear
12:55 PM 42.8 °F 33.3 °F 30.2 °F 61% 29.72 in 10.0 mi SSE 24.2 mph - N/A   Clear
1:15 PM 44.6 °F 35.5 °F 30.2 °F 57% 29.70 in 10.0 mi SSE 25.3 mph - N/A   Clear
1:35 PM 44.6 °F 35.9 °F 30.2 °F 57% 29.69 in 10.0 mi SSE 23.0 mph 29.9 mph N/A   Clear
1:55 PM 44.6 °F 36.4 °F 30.2 °F 57% 29.68 in 10.0 mi SSE 20.7 mph 32.2 mph N/A   Clear
2:15 PM 46.4 °F 38.1 °F 30.2 °F 53% 29.66 in 10.0 mi SSE 24.2 mph - N/A   Clear
2:35 PM 46.4 °F 38.3 °F 30.2 °F 53% 29.65 in 10.0 mi SSE 23.0 mph 28.8 mph N/A   Clear
2:55 PM 48.2 °F - 32.0 °F 54% 29.63 in 10.0 mi SSE 23.0 mph 29.9 mph N/A   Clear
3:15 PM 48.2 °F - 32.0 °F 54% 29.63 in 10.0 mi SSE 24.2 mph 32.2 mph N/A   Clear
3:35 PM 48.2 °F - 30.2 °F 50% 29.61 in 10.0 mi SSE 27.6 mph - N/A   Clear
3:55 PM 48.2 °F - 30.2 °F 50% 29.59 in 10.0 mi SSE 25.3 mph 32.2 mph N/A   Clear
4:15 PM 46.4 °F 38.3 °F 32.0 °F 57% 29.58 in 10.0 mi SSE 23.0 mph 31.1 mph N/A   Clear
4:35 PM 46.4 °F 38.5 °F 32.0 °F 57% 29.58 in 10.0 mi SSE 21.9 mph 28.8 mph N/A   Clear
4:55 PM 46.4 °F 39.0 °F 32.0 °F 57% 29.58 in 10.0 mi SSE 19.6 mph 27.6 mph N/A   Clear
5:15 PM 44.6 °F 37.4 °F 32.0 °F 61% 29.58 in 10.0 mi SSE 16.1 mph 25.3 mph N/A   Clear
5:35 PM 42.8 °F 35.1 °F 32.0 °F 66% 29.57 in 10.0 mi SSE 16.1 mph 23.0 mph N/A   Clear
5:55 PM 42.8 °F 34.8 °F 32.0 °F 66% 29.56 in 10.0 mi SSE 17.3 mph - N/A   Clear
6:15 PM 41.0 °F 32.8 °F 32.0 °F 70% 29.56 in 10.0 mi SSE 16.1 mph 21.9 mph N/A   Clear
6:35 PM 41.0 °F 33.1 °F 32.0 °F 70% 29.56 in 10.0 mi SSE 15.0 mph - N/A   Clear
6:55 PM 41.0 °F 32.5 °F 32.0 °F 70% 29.55 in 10.0 mi SSE 17.3 mph - N/A   Clear
7:15 PM 41.0 °F 32.5 °F 32.0 °F 70% 29.55 in 10.0 mi SSE 17.3 mph - N/A   Clear
7:35 PM 41.0 °F 32.5 °F 32.0 °F 70% 29.55 in 10.0 mi SSE 17.3 mph - N/A   Clear
7:55 PM 41.0 °F 31.6 °F 32.0 °F 70% 29.54 in 10.0 mi SSE 20.7 mph - N/A   Clear
8:15 PM 39.2 °F 30.2 °F 30.2 °F 70% 29.54 in 10.0 mi SSE 17.3 mph - N/A   Clear
8:35 PM 39.2 °F 30.2 °F 30.2 °F 70% 29.54 in 10.0 mi SSE 17.3 mph - N/A   Clear
9:15 PM 39.2 °F 29.6 °F 30.2 °F 70% 29.53 in 10.0 mi SSE 19.6 mph - N/A   Clear
9:35 PM 39.2 °F 29.8 °F 32.0 °F 75% 29.54 in 10.0 mi South 18.4 mph - N/A   Clear
9:55 PM 39.2 °F 30.2 °F 32.0 °F 75% 29.54 in 10.0 mi South 17.3 mph - N/A   Clear
10:15 PM 39.2 °F 30.5 °F 32.0 °F 75% 29.53 in 10.0 mi South 16.1 mph - N/A   Clear
10:35 PM 39.2 °F 31.6 °F 32.0 °F 75% 29.53 in 10.0 mi South 12.7 mph - N/A   Clear
10:55 PM 39.2 °F 30.8 °F 32.0 °F 75% 29.54 in 10.0 mi South 15.0 mph - N/A   Clear
11:15 PM 37.4 °F 30.8 °F 32.0 °F 81% 29.54 in 10.0 mi South 9.2 mph 15.0 mph N/A   Clear
11:35 PM 37.4 °F 30.8 °F 32.0 °F 81% 29.55 in 10.0 mi SW 9.2 mph - N/A   Clear
11:55 PM 37.4 °F 29.3 °F 32.0 °F 81% 29.55 in 10.0 mi SSW 12.7 mph - N/A   Clear